SGAS/ASU METAR and TAF weather

Enter ICAO airport designator
Example: see airport list
Station Type Date Time Source
SGAS METAR 2016/09/30 12:30 UTC NOAA

SGAS 301230Z 20017KT 8000 TSRA BKN030 FEW040CB OVC070 19/16 Q1015


Station Type Date Time Source
SGAS Decoded METAR 2016/09/30 12:30 UTC NOAA

Asuncion / Aeropuerto, Paraguay (SGAS) 25-16S 057-38W 101M
Sep 30, 2016 - 08:30 AM EDT / 2016.09.30 1230 UTC
Wind: from the SSW (200 degrees) at 20 MPH (17 KT):0
Visibility: 4 mile(s):0
Sky conditions: overcast
Weather: rain with thunder; Cumulonimbus clouds observed
Temperature: 66 F (19 C)
Dew Point: 60 F (16 C)
Relative Humidity: 82%
Pressure (altimeter): 29.97 in. Hg (1015 hPa)
ob: SGAS 301230Z 20017KT 8000 TSRA BKN030 FEW040CB OVC070 19/16 Q1015
cycle: 12

Station Type Date Time Source
SGAS TAF 2016/09/30 12:30 UTC NOAA

TAF TAF SGAS 301050Z 3012/0112 16011KT 7000 TSRA BKN017 FEW040CB TX29/3019Z TN17/0110Z
BECMG 3017/3020 14008KT 8000 -RA BKN015 OVC027
BECMG 0100/0103 18004KT 9999 BKN023
BECMG 0107/0110 VRB03KT 8000 BKN030